DIAP/ABJ METAR and TAF weather

Enter ICAO airport designator
Station Type Date Time Source
DIAP METAR 2019/06/20 06:30 UTC NOAA

DIAP 200630Z 19003KT 7000 FEW013 30/24 Q1014 NOSIG


Station Type Date Time Source
DIAP Decoded METAR 2019/06/20 06:30 UTC NOAA

Abidjan, Cote d'Ivoire (DIAP) 05-15N 003-56W 8M
Jun 20, 2019 - 02:30 AM EDT / 2019.06.20 0630 UTC
Wind: from the S (190 degrees) at 3 MPH (3 KT):0
Visibility: 4 mile(s):0
Sky conditions: mostly clear
Temperature: 86 F (30 C)
Heat index: 95.0 F (35.0 C):1
Dew Point: 75 F (24 C)
Relative Humidity: 70%
Pressure (altimeter): 29.94 in. Hg (1014 hPa)
ob: DIAP 200630Z 19003KT 7000 FEW013 30/24 Q1014 NOSIG
cycle: 6

Station Type Date Time Source
DIAP TAF 2019/06/20 06:18 UTC NOAA

TAF TAF DIAP 200500Z 2006/2112 20004KT 8000 SCT012
TEMPO 2006/2010 BKN012
TEMPO 2016/2022 BKN012
TEMPO 2102/2106 4000 RA BKN012

Example: see airport list